Time;durP1;ratioP1;P1;durP2;ratioP2;P2;SDS_P1;SDS_P2;PMS_P1;PMS_P2;Temp;Humidity;BMP_temperature;BMP_pressure;BME280_temperature;BME280_humidity;BME280_pressure;Samples;Min_cycle;Max_cycle;Signal;HPM_P1;HPM_P2
2023/05/26 00:00:32;;;;;;;49.20;8.50;;;;;;;-144.73;100.00;54395.38;5089753;28;20138;-70
2023/05/26 00:02:58;;;;;;;68.72;9.77;;;;;;;-144.73;100.00;54374.84;5090688;28;20036;-70
2023/05/26 00:05:25;;;;;;;53.17;8.70;;;;;;;-144.73;100.00;54358.44;5091508;28;20047;-70
2023/05/26 00:07:50;;;;;;;59.75;8.30;;;;;;;-144.73;100.00;54348.19;5090366;28;20097;-70
2023/05/26 00:10:16;;;;;;;56.55;9.10;;;;;;;-144.73;100.00;54393.34;5089808;28;20066;-70
2023/05/26 00:12:41;;;;;;;51.47;9.10;;;;;;;-144.73;100.00;54407.69;5092041;28;20039;-70
2023/05/26 00:15:07;;;;;;;49.53;8.18;;;;;;;-144.73;100.00;54362.53;5090948;28;20463;-70
2023/05/26 00:17:33;;;;;;;58.20;8.52;;;;;;;-144.73;100.00;54362.53;5090079;28;20383;-69
2023/05/26 00:20:00;;;;;;;44.50;7.28;;;;;;;-144.73;100.00;54381.00;5089852;28;20020;-69
2023/05/26 00:22:28;;;;;;;51.30;9.77;;;;;;;-144.73;100.00;54374.84;5090815;28;20102;-71
2023/05/26 00:24:53;;;;;;;55.13;9.00;;;;;;;-144.73;100.00;54374.84;5089726;28;20023;-69
2023/05/26 00:27:19;;;;;;;72.45;10.35;;;;;;;-144.73;100.00;54407.69;5090041;28;20024;-70
2023/05/26 00:29:44;;;;;;;43.42;8.70;;;;;;;-144.73;100.00;54407.69;5090067;28;20063;-71
2023/05/26 00:32:11;;;;;;;59.75;9.00;;;;;;;-144.73;100.00;54387.19;5075463;28;20024;-70
2023/05/26 00:34:36;;;;;;;71.07;9.57;;;;;;;-144.73;100.00;54362.53;5071130;28;20025;-70
2023/05/26 00:37:02;;;;;;;46.78;10.05;;;;;;;-144.73;100.00;54346.13;5070645;28;20029;-69
2023/05/26 00:39:28;;;;;;;55.88;8.40;;;;;;;-144.73;100.00;54374.84;5069721;28;20131;-70
2023/05/26 00:41:54;;;;;;;54.63;10.05;;;;;;;-144.73;100.00;54346.13;5074192;28;20039;-70
2023/05/26 00:44:21;;;;;;;68.80;11.40;;;;;;;-144.73;100.00;54385.13;5090817;28;20016;-69
2023/05/26 00:46:46;;;;;;;56.33;9.23;;;;;;;-144.73;100.00;54374.84;5090843;28;20533;-69
2023/05/26 00:49:12;;;;;;;49.80;7.95;;;;;;;-144.73;100.00;54344.06;5090914;28;20020;-69
2023/05/26 00:51:37;;;;;;;61.35;9.40;;;;;;;-144.73;100.00;54383.06;5090432;28;20031;-69
2023/05/26 00:54:03;;;;;;;47.28;8.43;;;;;;;-144.73;100.00;54346.13;5089343;28;20020;-68
2023/05/26 00:56:31;;;;;;;54.42;9.30;;;;;;;-144.73;100.00;54360.50;5089489;28;20166;-69
2023/05/26 00:58:58;;;;;;;54.60;9.00;;;;;;;-144.73;100.00;54368.69;5089671;28;20028;-70
2023/05/26 01:01:25;;;;;;;58.95;9.55;;;;;;;-144.73;100.00;54387.19;5088991;28;20106;-69
2023/05/26 01:03:51;;;;;;;51.05;8.63;;;;;;;-144.73;100.00;54370.75;5089229;28;20019;-69
2023/05/26 01:06:17;;;;;;;49.33;8.20;;;;;;;-144.73;100.00;54395.38;5089114;28;20039;-69
2023/05/26 01:08:42;;;;;;;57.33;8.65;;;;;;;-144.73;100.00;54407.69;5090465;28;20058;-69
2023/05/26 01:11:36;;;;;;;61.75;9.10;;;;;;;-144.73;100.00;54358.44;5068729;28;20056;-69
2023/05/26 01:14:11;;;;;;;51.50;9.35;;;;;;;-144.73;100.00;54366.66;5068603;28;20040;-69
2023/05/26 01:16:44;;;;;;;59.25;8.63;;;;;;;-144.73;100.00;54383.06;5077692;28;20036;-70
2023/05/26 01:19:47;;;;;;;66.72;9.73;;;;;;;-144.73;100.00;54383.06;5089444;28;20027;-70
2023/05/26 01:22:20;;;;;;;63.63;8.98;;;;;;;-144.73;100.00;54374.84;5092663;28;20542;-70
2023/05/26 01:25:20;;;;;;;60.40;8.95;;;;;;;-144.73;100.00;54395.38;5109682;28;20028;-69
2023/05/26 01:28:14;;;;;;;65.18;9.45;;;;;;;-144.73;100.00;54370.75;5090546;28;20036;-68
2023/05/26 01:30:42;;;;;;;63.42;9.43;;;;;;;-144.73;100.00;54399.50;5089900;28;20548;-70
2023/05/26 01:33:07;;;;;;;60.38;9.23;;;;;;;-144.73;100.00;54395.38;5089664;28;20103;-70
2023/05/26 01:35:33;;;;;;;50.15;8.55;;;;;;;-144.73;100.00;54374.84;5075564;28;20113;-69
2023/05/26 01:38:00;;;;;;;67.03;9.50;;;;;;;-144.73;100.00;54428.22;5092887;28;20027;-70
2023/05/26 01:40:26;;;;;;;53.75;9.23;;;;;;;-144.73;100.00;54362.53;5085662;28;20032;-70
2023/05/26 01:42:59;;;;;;;64.03;8.98;;;;;;;-144.73;100.00;54370.75;5072509;28;20024;-70
2023/05/26 01:45:27;;;;;;;56.70;8.48;;;;;;;-144.73;100.00;54362.53;5074061;28;20040;-70
2023/05/26 01:47:58;;;;;;;50.83;8.15;;;;;;;-144.73;100.00;54366.66;5088865;28;20020;-69
2023/05/26 01:50:42;;;;;;;63.60;9.00;;;;;;;-144.73;100.00;54350.22;5088389;28;20032;-69
2023/05/26 01:53:12;;;;;;;56.70;8.13;;;;;;;-144.73;100.00;54370.75;5088638;28;20106;-69
2023/05/26 01:55:38;;;;;;;75.07;9.90;;;;;;;-144.73;100.00;54387.19;5089309;28;20080;-70
2023/05/26 01:58:05;;;;;;;59.88;10.43;;;;;;;-144.73;100.00;54366.66;5094300;28;20035;-69
2023/05/26 02:00:30;;;;;;;73.22;9.90;;;;;;;-144.73;100.00;54354.34;5093881;28;20113;-70
2023/05/26 02:02:56;;;;;;;69.95;9.25;;;;;;;-144.73;100.00;54366.66;5093058;28;20055;-70
2023/05/26 02:05:21;;;;;;;50.17;8.48;;;;;;;-144.73;100.00;54407.69;5092166;28;20063;-70
2023/05/26 02:07:46;;;;;;;68.57;9.55;;;;;;;-144.73;100.00;54350.22;5092556;28;20027;-70
2023/05/26 02:10:12;;;;;;;71.07;9.18;;;;;;;-144.73;100.00;54350.22;5093964;28;20050;-70
2023/05/26 02:12:37;;;;;;;52.97;8.18;;;;;;;-144.73;100.00;54378.97;5094081;28;20032;-69
2023/05/26 02:15:03;;;;;;;53.00;8.05;;;;;;;-144.73;100.00;54420.00;5092647;28;20032;-69
2023/05/26 02:17:28;;;;;;;66.93;10.35;;;;;;;-144.73;100.00;54385.13;5094394;28;20139;-69
2023/05/26 02:19:54;;;;;;;56.28;8.95;;;;;;;-144.73;100.00;54383.06;5092336;28;20066;-70
2023/05/26 02:22:19;;;;;;;60.60;9.20;;;;;;;-144.73;100.00;54335.88;5092671;28;20016;-70
2023/05/26 02:24:45;;;;;;;58.20;8.13;;;;;;;-144.73;100.00;54407.69;5092056;28;20064;-70
2023/05/26 02:27:10;;;;;;;47.25;7.97;;;;;;;-144.73;100.00;54354.34;5092433;28;20288;-70
2023/05/26 02:29:36;;;;;;;55.53;9.50;;;;;;;-144.73;100.00;54335.88;5092637;28;20059;-69
2023/05/26 02:32:01;;;;;;;58.30;8.10;;;;;;;-144.73;100.00;54374.84;5110697;28;20065;-70
2023/05/26 02:34:26;;;;;;;62.30;8.95;;;;;;;-144.73;100.00;54337.91;5113705;27;20024;-70
2023/05/26 02:36:55;;;;;;;47.53;7.97;;;;;;;-144.73;100.00;54407.69;5112286;28;20508;-69
2023/05/26 02:39:21;;;;;;;55.22;8.80;;;;;;;-144.73;100.00;54342.03;5112869;28;20534;-70
2023/05/26 02:41:47;;;;;;;44.55;8.13;;;;;;;-144.73;100.00;54370.75;5112211;28;20036;-69
2023/05/26 02:44:13;;;;;;;61.65;9.38;;;;;;;-144.73;100.00;54374.84;5113706;28;20394;-69
2023/05/26 02:46:39;;;;;;;67.32;9.02;;;;;;;-144.73;100.00;54378.97;5113403;28;20047;-69
2023/05/26 02:49:04;;;;;;;53.88;8.32;;;;;;;-144.73;100.00;54362.53;5112332;28;20028;-69
2023/05/26 02:51:30;;;;;;;61.35;8.27;;;;;;;-144.73;100.00;54346.13;5113327;28;20894;-70
2023/05/26 02:53:56;;;;;;;62.00;8.88;;;;;;;-144.73;100.00;54389.22;5112444;28;20039;-69
2023/05/26 02:56:21;;;;;;;49.63;9.57;;;;;;;-144.73;100.00;54354.34;5111856;28;20040;-69
2023/05/26 02:58:47;;;;;;;64.95;9.55;;;;;;;-144.73;100.00;54415.91;5112827;28;20031;-70
2023/05/26 03:01:12;;;;;;;59.30;8.55;;;;;;;-144.73;100.00;54411.81;5112433;28;20036;-69
2023/05/26 03:03:38;;;;;;;59.92;9.82;;;;;;;-144.73;100.00;54342.03;5111555;28;20053;-68
2023/05/26 03:06:04;;;;;;;62.00;8.63;;;;;;;-144.73;100.00;54374.84;5111930;28;20036;-68
2023/05/26 03:08:30;;;;;;;61.25;9.38;;;;;;;-144.73;100.00;54374.84;5111069;28;20062;-68
2023/05/26 03:10:56;;;;;;;61.90;9.15;;;;;;;-144.73;100.00;54391.28;5112799;27;20059;-68
2023/05/26 03:13:21;;;;;;;53.67;8.23;;;;;;;-144.73;100.00;54362.53;5114267;28;20063;-68
2023/05/26 03:15:48;;;;;;;41.40;7.75;;;;;;;-144.73;100.00;54374.84;5094352;28;20039;-68
2023/05/26 03:18:13;;;;;;;60.90;9.05;;;;;;;-144.73;100.00;54354.34;5090995;28;20081;-70
2023/05/26 03:20:39;;;;;;;47.35;9.18;;;;;;;-144.73;100.00;54360.50;5092151;28;20028;-68
2023/05/26 03:23:06;;;;;;;66.90;10.23;;;;;;;-144.73;100.00;54374.84;5091011;28;20032;-68
2023/05/26 03:25:31;;;;;;;55.72;8.77;;;;;;;-144.73;100.00;54350.22;5090868;28;20040;-68
2023/05/26 03:27:56;;;;;;;52.55;9.38;;;;;;;-144.73;100.00;54366.66;5091571;28;20043;-68
2023/05/26 03:30:21;;;;;;;57.65;9.15;;;;;;;-144.73;100.00;54362.53;5105667;28;20097;-68
2023/05/26 03:32:47;;;;;;;61.10;9.65;;;;;;;-144.73;100.00;54374.84;5091409;28;20143;-68
2023/05/26 03:35:12;;;;;;;59.25;8.65;;;;;;;-144.73;100.00;54399.50;5096264;28;20043;-68
2023/05/26 03:37:38;;;;;;;49.90;9.02;;;;;;;-144.73;100.00;54407.69;5114912;27;20031;-68
2023/05/26 03:40:05;;;;;;;59.53;8.48;;;;;;;-144.73;100.00;54387.19;5109630;27;20039;-68
2023/05/26 03:42:30;;;;;;;61.95;10.10;;;;;;;-144.73;100.00;54317.38;5092294;28;20036;-68
2023/05/26 03:44:55;;;;;;;65.68;10.07;;;;;;;-144.73;100.00;54366.66;5075645;28;20028;-68
2023/05/26 03:47:21;;;;;;;72.07;9.32;;;;;;;-144.73;100.00;54407.69;5094272;28;20118;-68
2023/05/26 03:49:46;;;;;;;56.90;9.32;;;;;;;-144.73;100.00;54374.84;5110794;28;20148;-68
2023/05/26 03:52:11;;;;;;;57.97;9.55;;;;;;;-144.73;100.00;54358.44;5079822;27;20031;-68
2023/05/26 03:54:37;;;;;;;55.15;7.93;;;;;;;-144.73;100.00;54374.84;5108097;28;20027;-69
2023/05/26 03:57:02;;;;;;;63.78;9.55;;;;;;;-144.73;100.00;54368.69;5073696;28;20043;-68
2023/05/26 03:59:28;;;;;;;60.92;9.18;;;;;;;-144.73;100.00;54362.53;5073631;28;20054;-68
2023/05/26 04:01:53;;;;;;;56.53;9.07;;;;;;;-144.73;100.00;54350.22;5072926;28;20057;-69
2023/05/26 04:04:18;;;;;;;71.55;9.45;;;;;;;-144.73;100.00;54362.53;5091611;28;20028;-69
2023/05/26 04:06:44;;;;;;;70.70;9.10;;;;;;;-144.73;100.00;54358.44;5073397;28;20044;-68
2023/05/26 04:09:09;;;;;;;64.70;9.02;;;;;;;-144.73;100.00;54383.06;5074107;28;20053;-68
2023/05/26 04:11:35;;;;;;;43.45;8.00;;;;;;;-144.73;100.00;54395.38;5072614;28;20193;-68
2023/05/26 04:14:00;;;;;;;62.45;10.45;;;;;;;-144.73;100.00;54391.28;5073196;28;20047;-68
2023/05/26 04:16:26;;;;;;;59.45;9.43;;;;;;;-144.73;100.00;54387.19;5072863;28;20040;-68
2023/05/26 04:18:51;;;;;;;57.33;8.50;;;;;;;-144.73;100.00;54407.69;5072911;28;20467;-68
2023/05/26 04:21:16;;;;;;;67.78;9.02;;;;;;;-144.73;100.00;54370.75;5072722;28;20036;-69
2023/05/26 04:23:42;;;;;;;74.85;11.05;;;;;;;-144.73;100.00;54397.44;5073554;28;20382;-69
2023/05/26 04:26:08;;;;;;;67.80;9.70;;;;;;;-144.73;100.00;54395.38;5106704;28;20036;-69
2023/05/26 04:28:34;;;;;;;54.33;9.98;;;;;;;-144.73;100.00;54378.97;5091509;28;20032;-68
2023/05/26 04:31:01;;;;;;;73.60;10.30;;;;;;;-144.73;100.00;54350.22;5072396;28;20036;-68
2023/05/26 04:33:26;;;;;;;51.78;8.32;;;;;;;-144.73;100.00;54354.34;5073353;28;20058;-68
2023/05/26 04:35:52;;;;;;;66.22;8.45;;;;;;;-144.73;100.00;54432.31;5072597;28;20490;-68
2023/05/26 04:38:17;;;;;;;60.20;9.07;;;;;;;-144.73;100.00;54391.28;5091498;28;20031;-68
2023/05/26 04:40:43;;;;;;;66.53;8.68;;;;;;;-144.73;100.00;54348.19;5090642;28;20051;-69
2023/05/26 04:43:10;;;;;;;64.28;8.90;;;;;;;-144.73;100.00;54395.38;5072913;28;20382;-68
2023/05/26 04:45:37;;;;;;;62.22;9.65;;;;;;;-144.73;100.00;54407.69;5090283;28;20044;-72
2023/05/26 04:48:05;;;;;;;53.10;8.68;;;;;;;-144.73;100.00;54448.75;5077425;28;20019;-72
2023/05/26 04:50:32;;;;;;;68.65;11.52;;;;;;;-144.73;100.00;54370.75;5074669;28;20032;-71
2023/05/26 04:52:58;;;;;;;73.57;10.70;;;;;;;-144.73;100.00;54366.66;5078324;28;20034;-72
2023/05/26 04:55:25;;;;;;;49.75;9.73;;;;;;;-144.73;100.00;54383.06;5096324;28;20096;-72
2023/05/26 04:57:50;;;;;;;59.70;9.40;;;;;;;-144.73;100.00;54413.84;5097536;28;20028;-72
2023/05/26 05:00:16;;;;;;;60.13;10.43;;;;;;;-144.73;100.00;54354.34;5082935;28;20157;-71
2023/05/26 05:02:41;;;;;;;59.28;8.30;;;;;;;-144.73;100.00;54358.44;5087223;28;20030;-72
2023/05/26 05:05:07;;;;;;;54.88;8.52;;;;;;;-144.73;100.00;54370.75;5099491;28;20111;-71
2023/05/26 05:07:33;;;;;;;52.15;8.77;;;;;;;-144.73;100.00;54395.38;5097480;28;20466;-71
2023/05/26 05:09:59;;;;;;;68.78;10.30;;;;;;;-144.73;100.00;54399.50;5080479;28;20024;-72
2023/05/26 05:12:24;;;;;;;58.25;9.70;;;;;;;-144.73;100.00;54362.53;5089579;28;20508;-72
2023/05/26 05:14:50;;;;;;;57.97;9.77;;;;;;;-144.73;100.00;54378.97;5071041;28;20036;-72
2023/05/26 05:17:16;;;;;;;72.18;10.48;;;;;;;-144.73;100.00;54352.28;5071966;28;20035;-72
2023/05/26 05:19:42;;;;;;;73.00;10.20;;;;;;;-144.73;100.00;54407.69;5071448;28;20062;-72
2023/05/26 05:22:07;;;;;;;49.42;8.75;;;;;;;-144.73;100.00;54409.75;5073560;28;20402;-73
2023/05/26 05:24:33;;;;;;;57.58;10.05;;;;;;;-144.73;100.00;54387.19;5092464;28;20074;-72
2023/05/26 05:26:58;;;;;;;64.03;8.20;;;;;;;-144.73;100.00;54411.81;5100722;28;20031;-72
2023/05/26 05:29:24;;;;;;;60.03;9.45;;;;;;;-144.73;100.00;54354.34;5081202;28;20111;-72
2023/05/26 05:31:49;;;;;;;59.28;8.85;;;;;;;-144.73;100.00;54358.44;5082089;28;20024;-72
2023/05/26 05:34:14;;;;;;;52.25;11.18;;;;;;;-144.73;100.00;54383.06;5083728;28;20050;-72
2023/05/26 05:36:40;;;;;;;50.15;8.52;;;;;;;-144.73;100.00;54370.75;5087649;28;20063;-72
2023/05/26 05:39:05;;;;;;;65.57;12.30;;;;;;;-144.73;100.00;54399.50;5078969;28;20070;-72
2023/05/26 05:41:30;;;;;;;59.25;8.85;;;;;;;-144.73;100.00;54378.97;5094913;28;20065;-72
2023/05/26 05:43:59;;;;;;;59.72;8.82;;;;;;;-144.73;100.00;54389.22;5085709;28;20024;-73
2023/05/26 05:46:25;;;;;;;59.10;9.77;;;;;;;-144.73;100.00;54387.19;5085680;28;20163;-72
2023/05/26 05:48:51;;;;;;;53.40;7.88;;;;;;;-144.73;100.00;54440.53;5083516;28;20024;-72
2023/05/26 05:51:16;;;;;;;54.70;8.32;;;;;;;-144.73;100.00;54376.91;5070692;28;20127;-73
2023/05/26 05:53:43;;;;;;;56.00;8.80;;;;;;;-144.73;100.00;54387.19;5076679;28;20028;-72
2023/05/26 05:56:09;;;;;;;55.90;9.40;;;;;;;-144.73;100.00;54358.44;5105161;28;20032;-72
2023/05/26 05:58:34;;;;;;;60.13;9.65;;;;;;;-144.73;100.00;54370.75;5082399;28;20035;-72
2023/05/26 06:00:59;;;;;;;50.03;8.13;;;;;;;-144.73;100.00;54378.97;5090024;28;20064;-72
2023/05/26 06:03:25;;;;;;;57.50;10.05;;;;;;;-144.73;100.00;54346.13;5103775;28;20038;-73
2023/05/26 06:05:50;;;;;;;53.85;7.85;;;;;;;-144.73;100.00;54395.38;5095907;28;20042;-72
2023/05/26 06:08:15;;;;;;;52.90;9.10;;;;;;;-144.73;100.00;54389.22;5077614;28;20103;-72
2023/05/26 06:10:42;;;;;;;53.45;10.02;;;;;;;-144.73;100.00;54354.34;5093761;28;20296;-72
2023/05/26 06:13:07;;;;;;;59.95;8.95;;;;;;;-144.73;99.73;54395.38;5080240;28;20028;-72
2023/05/26 06:15:33;;;;;;;62.55;8.23;;;;;;;-144.73;98.34;54370.75;5096246;28;20044;-72
2023/05/26 06:17:58;;;;;;;45.08;6.93;;;;;;;-144.73;98.63;54395.38;5077478;28;20024;-73
2023/05/26 06:20:23;;;;;;;64.60;8.65;;;;;;;-144.73;97.49;54420.00;5081580;28;20054;-72
2023/05/26 06:22:49;;;;;;;60.58;8.38;;;;;;;-144.73;96.13;54385.13;5083312;28;20471;-72
2023/05/26 06:25:14;;;;;;;55.85;8.43;;;;;;;-144.73;95.80;54374.84;5080235;28;20036;-73
2023/05/26 06:27:39;;;;;;;45.13;7.93;;;;;;;-144.73;95.62;54376.91;5075950;28;20034;-72
2023/05/26 06:30:06;;;;;;;47.72;7.57;;;;;;;-144.73;94.93;54385.13;5072251;28;20124;-73
2023/05/26 06:32:31;;;;;;;44.97;7.13;;;;;;;-144.73;93.85;54378.97;5097244;28;20131;-73
2023/05/26 06:34:56;;;;;;;57.25;8.27;;;;;;;-144.73;92.02;54368.69;5095835;28;20526;-72
2023/05/26 06:37:22;;;;;;;44.15;7.25;;;;;;;-144.73;91.45;54370.75;5091550;28;20059;-72
2023/05/26 06:39:47;;;;;;;46.58;6.93;;;;;;;-144.73;91.10;54376.91;5082111;28;20103;-73
2023/05/26 06:42:12;;;;;;;42.70;6.55;;;;;;;-144.73;90.64;54395.38;5078958;28;20027;-72
2023/05/26 06:44:38;;;;;;;44.38;6.60;;;;;;;-144.73;90.09;54370.75;5081486;28;20034;-73
2023/05/26 06:47:03;;;;;;;38.80;7.22;;;;;;;-144.73;88.26;54420.00;5090484;28;20161;-72
2023/05/26 06:49:28;;;;;;;52.78;8.40;;;;;;;-144.73;87.83;54362.53;5094816;28;20015;-71
2023/05/26 06:51:54;;;;;;;42.80;7.35;;;;;;;-144.73;87.04;54342.03;5088667;28;20087;-72
2023/05/26 06:54:19;;;;;;;53.60;7.55;;;;;;;-144.73;85.93;54407.69;5100598;28;21251;-72
2023/05/26 06:56:45;;;;;;;50.75;8.40;;;;;;;-144.73;85.42;54424.13;5085150;28;20035;-72
2023/05/26 06:59:10;;;;;;;34.20;6.28;;;;;;;-144.73;84.01;54391.28;5095823;28;20130;-72
2023/05/26 07:01:35;;;;;;;36.72;7.25;;;;;;;-144.73;84.12;54389.22;5062433;28;20032;-72
2023/05/26 07:04:01;;;;;;;38.92;7.72;;;;;;;-144.73;83.71;54420.00;5087350;28;20019;-72
2023/05/26 07:06:26;;;;;;;51.03;7.40;;;;;;;-144.73;82.54;54370.75;5081951;28;20067;-73
2023/05/26 07:08:52;;;;;;;43.90;7.25;;;;;;;-144.73;81.73;54360.50;5074136;28;20033;-71
2023/05/26 07:11:17;;;;;;;44.60;7.15;;;;;;;-144.73;80.49;54358.44;5067403;28;20048;-72
2023/05/26 07:13:45;;;;;;;39.75;6.90;;;;;;;-144.73;80.36;54354.34;5079256;28;20028;-72
2023/05/26 07:16:10;;;;;;;37.97;6.03;;;;;;;-144.73;79.25;54387.19;5063563;28;20033;-71
2023/05/26 07:18:35;;;;;;;37.47;6.30;;;;;;;-144.73;78.11;54397.44;5067671;28;20062;-72
2023/05/26 07:21:01;;;;;;;36.08;6.70;;;;;;;-144.73;78.68;54372.81;5084829;28;20107;-72
2023/05/26 07:23:26;;;;;;;39.08;7.13;;;;;;;-144.73;78.53;54358.44;5076417;28;20027;-72
2023/05/26 07:25:51;;;;;;;31.35;6.30;;;;;;;-144.73;76.99;54329.72;5083158;28;20093;-71
2023/05/26 07:28:17;;;;;;;34.90;6.10;;;;;;;-144.73;76.86;54350.22;5094656;28;20058;-72
2023/05/26 07:30:42;;;;;;;33.03;7.13;;;;;;;-144.73;74.72;54354.34;5070758;28;20043;-71
2023/05/26 07:33:07;;;;;;;36.80;6.60;;;;;;;-144.73;74.80;54342.03;5087800;28;20272;-71
2023/05/26 07:35:33;;;;;;;46.78;6.50;;;;;;;-144.73;73.80;54362.53;5073744;28;20039;-71
2023/05/26 07:37:59;;;;;;;41.08;7.35;;;;;;;-144.73;72.04;54350.22;5094674;28;20024;-71
2023/05/26 07:40:24;;;;;;;38.30;7.97;;;;;;;-144.73;72.12;54374.84;5074119;28;20036;-72
2023/05/26 07:42:50;;;;;;;39.15;6.38;;;;;;;-144.73;72.06;54327.66;5085174;28;20096;-72
2023/05/26 07:45:15;;;;;;;26.08;5.85;;;;;;;-144.73;72.80;54378.97;5084816;28;20035;-72
2023/05/26 07:47:40;;;;;;;36.78;7.38;;;;;;;-144.73;72.26;54333.81;5061514;28;20024;-72
2023/05/26 07:50:06;;;;;;;36.63;7.53;;;;;;;-144.73;72.69;54358.44;5085896;28;20035;-71
2023/05/26 07:52:32;;;;;;;41.95;7.32;;;;;;;-144.73;70.75;54362.53;5099560;28;20095;-72
2023/05/26 07:54:58;;;;;;;43.53;7.43;;;;;;;-144.73;71.98;54321.50;5077979;28;20019;-73
2023/05/26 07:57:23;;;;;;;33.63;7.07;;;;;;;-144.73;72.37;54337.91;5077020;28;20027;-72
2023/05/26 07:59:49;;;;;;;31.73;5.85;;;;;;;-144.73;71.10;54342.03;5094952;28;20012;-72
2023/05/26 08:02:14;;;;;;;32.42;6.63;;;;;;;-144.73;71.46;54352.28;5073384;28;20077;-71
2023/05/26 08:04:40;;;;;;;38.05;7.80;;;;;;;-144.73;69.80;54391.28;5066729;28;20023;-73
2023/05/26 08:07:06;;;;;;;39.25;7.07;;;;;;;-144.73;69.35;54350.22;5072970;28;20028;-71
2023/05/26 08:09:32;;;;;;;40.58;6.63;;;;;;;-144.73;68.74;54342.03;5073414;28;20066;-72
2023/05/26 08:11:57;;;;;;;28.83;6.35;;;;;;;-144.73;67.62;54354.34;5077345;28;20040;-72
2023/05/26 08:14:24;;;;;;;49.53;5.45;;;;;;;-144.73;68.49;54317.38;5075345;28;20036;-72
2023/05/26 08:16:49;;;;;;;27.90;6.40;;;;;;;-144.73;67.84;54350.22;5075098;28;20028;-72
2023/05/26 08:19:15;;;;;;;43.35;6.38;;;;;;;-144.73;67.34;54317.38;5067909;28;20026;-71
2023/05/26 08:21:40;;;;;;;37.60;7.15;;;;;;;-144.73;64.31;54350.22;5098693;28;20027;-74
2023/05/26 08:24:06;;;;;;;26.85;5.80;;;;;;;-144.73;65.01;54325.59;5078804;28;20012;-72
2023/05/26 08:26:31;;;;;;;26.98;6.40;;;;;;;-144.73;65.52;54317.38;5083111;28;20032;-73
2023/05/26 08:28:56;;;;;;;30.63;6.85;;;;;;;-144.73;64.45;54346.13;5090251;28;20016;-73
2023/05/26 08:31:22;;;;;;;28.42;6.50;;;;;;;-144.73;62.98;54350.22;5090213;28;20119;-73
2023/05/26 08:33:47;;;;;;;34.60;6.93;;;;;;;-144.73;62.37;54327.66;5072044;28;20020;-73
2023/05/26 08:36:13;;;;;;;35.50;6.32;;;;;;;-144.73;62.25;54391.28;5076867;28;20031;-71
2023/05/26 08:38:38;;;;;;;39.58;7.45;;;;;;;-144.73;62.81;54342.03;5068414;28;20076;-73
2023/05/26 08:41:05;;;;;;;34.65;6.07;;;;;;;-144.73;65.11;54346.13;5075469;28;20073;-71
2023/05/26 08:43:52;;;;;;;39.38;7.07;;;;;;;-144.73;66.46;54342.03;5095241;28;20024;-71
2023/05/26 08:46:18;;;;;;;33.10;6.00;;;;;;;-144.73;65.48;54346.13;5078193;28;20114;-71
2023/05/26 08:48:44;;;;;;;42.17;8.63;;;;;;;-144.73;66.05;54337.91;5075462;28;20024;-71
2023/05/26 08:51:11;;;;;;;29.23;6.28;;;;;;;-144.73;62.99;54309.19;5097321;28;20030;-72
2023/05/26 08:53:37;;;;;;;35.45;6.35;;;;;;;-144.73;60.17;54344.06;5092394;28;20037;-72
2023/05/26 08:56:03;;;;;;;32.13;5.47;;;;;;;-144.73;61.03;54323.53;5091678;28;20116;-71
2023/05/26 08:58:30;;;;;;;28.42;5.70;;;;;;;-144.73;59.27;54300.97;5068384;28;20067;-72
2023/05/26 09:00:56;;;;;;;36.15;6.22;;;;;;;-144.73;61.12;54354.34;5078986;28;20034;-72
2023/05/26 09:03:22;;;;;;;25.20;6.22;;;;;;;-144.73;60.95;54358.44;5063117;28;20024;-72
2023/05/26 09:05:47;;;;;;;43.42;8.27;;;;;;;-144.73;61.18;54335.88;5063895;28;20047;-72
2023/05/26 09:08:13;;;;;;;29.83;7.43;;;;;;;-144.73;59.45;54300.97;5065019;28;20055;-72
2023/05/26 09:10:38;;;;;;;40.13;6.57;;;;;;;-144.73;59.64;54313.28;5064869;28;20024;-71
2023/05/26 09:13:06;;;;;;;33.05;6.55;;;;;;;-144.73;59.69;54321.50;5084382;28;20043;-72
2023/05/26 09:15:32;;;;;;;34.47;6.72;;;;;;;-144.73;59.13;54317.38;5063567;28;20055;-72
2023/05/26 09:18:09;;;;;;;38.88;7.57;;;;;;;-144.73;58.52;54337.91;5066739;28;20027;-72
2023/05/26 09:20:39;;;;;;;35.45;6.22;;;;;;;-144.73;58.47;54337.91;5097082;28;20056;-73
2023/05/26 09:23:04;;;;;;;30.52;5.95;;;;;;;-144.73;57.42;54298.91;5089140;28;20031;-73
2023/05/26 09:25:34;;;;;;;25.30;5.88;;;;;;;-144.73;56.47;54329.72;5092349;28;20031;-74
2023/05/26 09:28:01;;;;;;;30.77;6.25;;;;;;;-144.73;57.42;54305.06;5094796;28;20069;-74
2023/05/26 09:30:29;;;;;;;40.65;7.45;;;;;;;-144.73;57.33;54317.38;5068341;28;20032;-73
2023/05/26 09:32:54;;;;;;;30.77;6.25;;;;;;;-144.73;59.38;54329.72;5083837;28;20016;-73
2023/05/26 09:35:19;;;;;;;37.72;7.30;;;;;;;-144.73;56.83;54329.72;5065008;28;20032;-73
2023/05/26 09:37:45;;;;;;;32.10;5.75;;;;;;;-144.73;56.97;54313.28;5097732;28;20099;-73
2023/05/26 09:40:14;;;;;;;33.10;7.50;;;;;;;-144.73;56.36;54315.34;5064329;28;20039;-74
2023/05/26 09:42:52;;;;;;;27.92;5.10;;;;;;;-144.73;54.11;54342.03;5109540;28;20046;-73
2023/05/26 09:45:18;;;;;;;25.98;5.13;;;;;;;-144.73;53.49;54344.06;5087120;28;20047;-74
2023/05/26 09:47:43;;;;;;;21.25;5.68;;;;;;;-144.73;52.72;54317.38;5081991;28;20020;-73
2023/05/26 09:50:09;;;;;;;30.27;6.55;;;;;;;-144.73;52.42;54317.38;5066474;28;20044;-72
2023/05/26 09:52:36;;;;;;;30.55;6.50;;;;;;;-144.73;52.86;54305.06;5067170;28;20019;-72
2023/05/26 09:55:03;;;;;;;31.10;6.53;;;;;;;-144.73;53.11;54346.13;5070906;28;20586;-72
2023/05/26 09:57:29;;;;;;;31.30;6.38;;;;;;;-144.73;54.74;54313.28;5072612;28;20536;-72
2023/05/26 09:59:56;;;;;;;27.40;5.40;;;;;;;-144.73;54.08;54280.44;5067554;28;20016;-72
2023/05/26 10:02:24;;;;;;;35.05;5.70;;;;;;;-144.73;53.84;54305.06;5058399;28;20116;-73
2023/05/26 10:04:51;;;;;;;34.58;7.22;;;;;;;-144.73;54.58;54339.97;5063143;28;20028;-73
2023/05/26 10:07:21;;;;;;;24.13;5.93;;;;;;;-144.73;55.11;54313.28;5059063;28;20020;-72
2023/05/26 10:09:57;;;;;;;31.40;6.47;;;;;;;-144.73;52.37;54296.88;5064303;28;20027;-72
2023/05/26 10:12:27;;;;;;;26.42;5.85;;;;;;;-144.73;51.72;54317.38;5082839;28;20021;-73
2023/05/26 10:14:53;;;;;;;33.22;6.63;;;;;;;-144.73;50.47;54325.59;5081961;28;20028;-72
2023/05/26 10:17:20;;;;;;;35.17;6.70;;;;;;;-144.73;50.84;54342.03;5067960;28;20016;-73
2023/05/26 10:19:46;;;;;;;28.58;6.40;;;;;;;-144.73;50.10;54276.34;5085229;28;20020;-72
2023/05/26 10:22:35;;;;;;;34.58;6.78;;;;;;;-144.73;48.13;54309.19;5068489;28;20073;-72
2023/05/26 10:25:06;;;;;;;23.27;5.35;;;;;;;-144.73;48.93;54307.13;5059245;28;20036;-73
2023/05/26 10:28:02;;;;;;;34.35;7.13;;;;;;;-144.73;50.70;54329.72;5066566;28;20103;-72
2023/05/26 10:30:28;;;;;;;34.85;7.68;;;;;;;-144.73;52.03;54337.91;5068700;28;20123;-73
2023/05/26 10:32:55;;;;;;;35.65;6.82;;;;;;;-144.73;51.68;54280.44;5071842;28;20430;-72
2023/05/26 10:35:27;;;;;;;31.50;6.93;;;;;;;-144.73;52.79;54346.13;5068416;28;20043;-72
2023/05/26 10:37:57;;;;;;;33.13;6.57;;;;;;;-144.73;52.65;54354.34;5073440;28;20107;-73
2023/05/26 10:40:42;;;;;;;31.77;7.03;;;;;;;-144.73;52.47;54251.72;5073581;28;20040;-72
2023/05/26 10:43:27;;;;;;;27.90;6.07;;;;;;;-144.73;52.66;54309.19;5068440;28;20039;-72
2023/05/26 10:46:03;;;;;;;28.00;6.50;;;;;;;-144.73;51.32;54300.97;5068499;28;20662;-73
2023/05/26 10:48:39;;;;;;;36.58;7.93;;;;;;;-144.73;50.65;54333.81;5086833;28;20082;-73
2023/05/26 10:51:16;;;;;;;37.97;7.25;;;;;;;-144.73;52.52;54296.88;5071840;28;20028;-72
2023/05/26 10:53:45;;;;;;;30.40;6.93;;;;;;;-144.73;51.75;54276.34;5106780;27;20020;-72
2023/05/26 10:56:13;;;;;;;29.42;7.10;;;;;;;-144.73;51.48;54329.72;5091530;28;20067;-73
2023/05/26 10:58:47;;;;;;;33.53;7.53;;;;;;;-144.73;50.54;54296.88;5069156;28;20133;-72
2023/05/26 11:01:20;;;;;;;33.03;6.13;;;;;;;-144.73;49.70;54313.28;5068354;28;20039;-73
2023/05/26 11:04:04;;;;;;;36.15;7.28;;;;;;;-144.73;49.80;54313.28;5065129;28;20063;-73